Time;durP1;ratioP1;P1;durP2;ratioP2;P2;SDS_P1;SDS_P2;PMS_P1;PMS_P2;Temp;Humidity;BMP_temperature;BMP_pressure;BME280_temperature;BME280_humidity;BME280_pressure;Samples;Min_cycle;Max_cycle;Signal;HPM_P1;HPM_P2
2021/07/04 00:02:07;;;;;;;7.95;5.30;;;;;;;;;;5066167;28;20024;-69
2021/07/04 00:04:34;;;;;;;6.85;5.10;;;;;;;;;;5065040;28;20020;-69
2021/07/04 00:07:00;;;;;;;7.80;5.40;;;;;;;;;;5065866;28;20040;-69
2021/07/04 00:09:27;;;;;;;5.60;4.75;;;;;;;;;;5066131;28;20560;-69
2021/07/04 00:11:53;;;;;;;7.97;4.60;;;;;;;;;;5065685;28;20527;-69
2021/07/04 00:14:19;;;;;;;9.20;4.63;;;;;;;;;;5066355;28;20017;-69
2021/07/04 00:16:46;;;;;;;6.60;4.72;;;;;;;;;;5064550;28;20036;-69
2021/07/04 00:19:12;;;;;;;5.15;4.50;;;;;;;;;;5065638;28;20159;-69
2021/07/04 00:21:38;;;;;;;7.93;5.07;;;;;;;;;;5065897;28;20024;-69
2021/07/04 00:24:05;;;;;;;7.68;5.10;;;;;;;;;;5065794;28;20032;-69
2021/07/04 00:26:31;;;;;;;9.93;5.68;;;;;;;;;;5064870;28;20519;-69
2021/07/04 00:28:57;;;;;;;10.45;5.70;;;;;;;;;;5063957;28;20020;-69
2021/07/04 00:31:23;;;;;;;7.38;6.07;;;;;;;;;;5065733;28;20025;-69
2021/07/04 00:33:49;;;;;;;8.35;5.60;;;;;;;;;;5065544;28;20027;-69
2021/07/04 00:36:15;;;;;;;7.00;5.10;;;;;;;;;;5065623;28;20142;-69
2021/07/04 00:38:42;;;;;;;8.15;5.32;;;;;;;;;;5065737;28;20123;-69
2021/07/04 00:41:08;;;;;;;6.57;4.90;;;;;;;;;;5064101;28;20032;-69
2021/07/04 00:43:34;;;;;;;5.70;5.00;;;;;;;;;;5065962;28;20487;-69
2021/07/04 00:46:00;;;;;;;5.25;4.20;;;;;;;;;;5069608;28;20073;-69
2021/07/04 00:48:27;;;;;;;7.10;4.20;;;;;;;;;;5068972;28;20028;-69
2021/07/04 00:50:53;;;;;;;4.30;3.63;;;;;;;;;;5069662;28;20033;-69
2021/07/04 00:53:19;;;;;;;7.07;3.95;;;;;;;;;;5067690;28;20686;-69
2021/07/04 00:55:45;;;;;;;6.85;3.60;;;;;;;;;;5069339;28;21014;-69
2021/07/04 00:58:12;;;;;;;4.72;3.78;;;;;;;;;;5069081;28;20653;-69
2021/07/04 01:00:39;;;;;;;6.97;4.10;;;;;;;;;;5068857;28;20070;-69
2021/07/04 01:03:05;;;;;;;5.45;3.22;;;;;;;;;;5067682;28;20353;-69
2021/07/04 01:05:33;;;;;;;3.55;3.25;;;;;;;;;;5068865;28;20086;-69
2021/07/04 01:08:00;;;;;;;5.55;3.70;;;;;;;;;;5069366;28;20028;-69
2021/07/04 01:10:28;;;;;;;6.20;4.35;;;;;;;;;;5068747;28;20024;-69
2021/07/04 01:12:55;;;;;;;6.63;4.47;;;;;;;;;;5068832;28;20383;-69
2021/07/04 01:15:25;;;;;;;4.43;3.83;;;;;;;;;;5068700;28;20609;-69
2021/07/04 01:17:51;;;;;;;6.82;4.50;;;;;;;;;;5067796;28;20040;-69
2021/07/04 01:20:19;;;;;;;6.65;4.57;;;;;;;;;;5069067;28;20204;-69
2021/07/04 01:22:55;;;;;;;13.05;4.65;;;;;;;;;;5066169;28;20021;-69
2021/07/04 01:25:21;;;;;;;7.28;4.40;;;;;;;;;;5068910;28;20029;-69
2021/07/04 01:27:48;;;;;;;7.78;4.25;;;;;;;;;;5065725;28;20415;-69
2021/07/04 01:30:14;;;;;;;5.22;4.70;;;;;;;;;;5067312;28;20029;-69
2021/07/04 01:32:40;;;;;;;6.10;4.07;;;;;;;;;;5068426;28;20470;-69
2021/07/04 01:35:07;;;;;;;8.52;4.55;;;;;;;;;;5068364;28;20104;-69
2021/07/04 01:37:33;;;;;;;8.45;4.20;;;;;;;;;;5067034;28;20522;-69
2021/07/04 01:39:59;;;;;;;5.00;4.00;;;;;;;;;;5068695;28;20086;-69
2021/07/04 01:42:25;;;;;;;5.05;4.00;;;;;;;;;;5068280;28;20104;-69
2021/07/04 01:44:51;;;;;;;6.95;4.10;;;;;;;;;;5068022;28;20024;-69
2021/07/04 01:47:18;;;;;;;6.60;4.18;;;;;;;;;;5068579;28;20079;-69
2021/07/04 01:49:44;;;;;;;4.60;4.00;;;;;;;;;;5066795;28;20024;-69
2021/07/04 01:52:10;;;;;;;7.30;3.70;;;;;;;;;;5068687;28;20025;-69
2021/07/04 01:54:37;;;;;;;5.38;3.70;;;;;;;;;;5067683;28;20378;-69
2021/07/04 01:57:11;;;;;;;4.15;3.75;;;;;;;;;;5067039;28;20033;-69
2021/07/04 01:59:44;;;;;;;6.20;3.75;;;;;;;;;;5068496;28;20024;-69
2021/07/04 02:02:11;;;;;;;6.13;3.92;;;;;;;;;;5067885;28;20420;-69
2021/07/04 02:04:42;;;;;;;6.70;4.53;;;;;;;;;;5066652;28;20024;-69
2021/07/04 02:07:18;;;;;;;5.97;4.17;;;;;;;;;;5068000;28;20036;-69
2021/07/04 02:09:48;;;;;;;5.28;3.90;;;;;;;;;;5066115;28;20269;-69
2021/07/04 02:12:16;;;;;;;4.30;3.70;;;;;;;;;;5066408;28;20060;-69
2021/07/04 02:14:42;;;;;;;5.25;3.97;;;;;;;;;;5067594;28;20063;-69
2021/07/04 02:17:09;;;;;;;5.88;3.80;;;;;;;;;;5067668;28;20029;-69
2021/07/04 02:19:35;;;;;;;6.97;4.50;;;;;;;;;;5066387;28;20063;-69
2021/07/04 02:22:02;;;;;;;6.15;4.00;;;;;;;;;;5067464;28;20060;-69
2021/07/04 02:24:29;;;;;;;4.65;4.05;;;;;;;;;;5067517;28;20035;-69
2021/07/04 02:26:55;;;;;;;5.45;4.15;;;;;;;;;;5067496;28;20028;-69
2021/07/04 02:29:21;;;;;;;5.50;4.28;;;;;;;;;;5066216;28;20611;-68
2021/07/04 02:31:48;;;;;;;4.72;3.80;;;;;;;;;;5067684;28;20028;-69
2021/07/04 02:34:14;;;;;;;6.35;4.15;;;;;;;;;;5067477;28;20028;-69
2021/07/04 02:36:41;;;;;;;4.22;3.83;;;;;;;;;;5067504;28;20507;-69
2021/07/04 02:39:07;;;;;;;4.97;3.28;;;;;;;;;;5065734;28;20151;-69
2021/07/04 02:41:34;;;;;;;5.25;3.80;;;;;;;;;;5067086;28;20024;-69
2021/07/04 02:44:00;;;;;;;5.63;4.22;;;;;;;;;;5066993;28;20059;-69
2021/07/04 02:46:26;;;;;;;8.00;3.78;;;;;;;;;;5067134;28;20029;-69
2021/07/04 02:48:53;;;;;;;6.22;4.47;;;;;;;;;;5067406;28;20129;-69
2021/07/04 02:51:19;;;;;;;5.18;4.32;;;;;;;;;;5065603;28;20469;-70
2021/07/04 02:53:45;;;;;;;6.78;4.30;;;;;;;;;;5067055;28;20024;-69
2021/07/04 02:56:11;;;;;;;7.40;4.43;;;;;;;;;;5066793;28;20043;-69
2021/07/04 02:58:37;;;;;;;4.80;4.40;;;;;;;;;;5067097;28;20089;-69
2021/07/04 03:01:04;;;;;;;6.18;4.70;;;;;;;;;;5066818;28;20028;-69
2021/07/04 03:03:30;;;;;;;7.70;4.70;;;;;;;;;;5060167;28;20075;-69
2021/07/04 03:05:56;;;;;;;7.32;4.85;;;;;;;;;;5058785;28;20142;-69
2021/07/04 03:08:22;;;;;;;5.60;4.68;;;;;;;;;;5061382;28;20034;-69
2021/07/04 03:10:49;;;;;;;5.32;4.65;;;;;;;;;;5062220;28;20039;-69
2021/07/04 03:13:15;;;;;;;6.88;4.35;;;;;;;;;;5061759;28;20296;-69
2021/07/04 03:15:41;;;;;;;5.50;3.83;;;;;;;;;;5060263;28;20101;-69
2021/07/04 03:18:08;;;;;;;9.13;4.80;;;;;;;;;;5061217;28;20035;-69
2021/07/04 03:20:34;;;;;;;7.18;4.55;;;;;;;;;;5059833;28;20054;-69
2021/07/04 03:23:00;;;;;;;7.28;4.25;;;;;;;;;;5061868;28;20017;-69
2021/07/04 03:25:26;;;;;;;4.40;3.97;;;;;;;;;;5061647;28;20030;-69
2021/07/04 03:27:53;;;;;;;4.20;3.63;;;;;;;;;;5061589;28;20112;-69
2021/07/04 03:30:20;;;;;;;4.00;3.60;;;;;;;;;;5059960;28;20035;-69
2021/07/04 03:32:48;;;;;;;5.10;3.47;;;;;;;;;;5061319;28;20028;-69
2021/07/04 03:35:14;;;;;;;5.13;3.42;;;;;;;;;;5060073;28;20052;-69
2021/07/04 03:37:41;;;;;;;6.80;3.50;;;;;;;;;;5061386;28;20039;-69
2021/07/04 03:40:07;;;;;;;3.72;3.25;;;;;;;;;;5060173;28;20527;-69
2021/07/04 03:42:34;;;;;;;5.88;3.22;;;;;;;;;;5055301;28;20696;-69
2021/07/04 03:45:00;;;;;;;3.55;2.95;;;;;;;;;;5061225;28;20055;-69
2021/07/04 03:47:26;;;;;;;4.70;3.72;;;;;;;;;;5059589;28;20028;-69
2021/07/04 03:49:53;;;;;;;4.47;3.35;;;;;;;;;;5061096;28;20035;-69
2021/07/04 03:52:19;;;;;;;4.15;3.30;;;;;;;;;;5059564;28;20054;-69
2021/07/04 03:54:46;;;;;;;3.80;3.28;;;;;;;;;;5061151;28;20043;-69
2021/07/04 03:57:21;;;;;;;3.75;3.45;;;;;;;;;;5061525;28;20043;-69
2021/07/04 03:59:51;;;;;;;3.90;3.50;;;;;;;;;;5058829;28;20020;-69
2021/07/04 04:02:18;;;;;;;6.28;3.35;;;;;;;;;;5059993;28;20029;-69
2021/07/04 04:04:44;;;;;;;5.60;3.90;;;;;;;;;;5061657;28;20021;-69
2021/07/04 04:07:10;;;;;;;7.15;3.55;;;;;;;;;;5061111;28;20027;-69
2021/07/04 04:09:36;;;;;;;4.10;3.70;;;;;;;;;;5061005;28;20086;-69
2021/07/04 04:12:03;;;;;;;3.40;3.10;;;;;;;;;;5060797;28;20028;-69
2021/07/04 04:14:29;;;;;;;3.85;3.28;;;;;;;;;;5060727;28;20031;-70
2021/07/04 04:16:55;;;;;;;4.50;3.78;;;;;;;;;;5058857;28;20032;-69
2021/07/04 04:19:21;;;;;;;6.03;3.42;;;;;;;;;;5064755;28;20020;-69
2021/07/04 04:21:47;;;;;;;7.80;3.50;;;;;;;;;;5057464;28;20108;-69
2021/07/04 04:24:13;;;;;;;8.40;4.22;;;;;;;;;;5063469;28;20028;-69
2021/07/04 04:26:40;;;;;;;7.03;4.93;;;;;;;;;;5064722;28;20024;-69
2021/07/04 04:29:06;;;;;;;7.28;5.65;;;;;;;;;;5064898;28;20017;-69
2021/07/04 04:31:33;;;;;;;6.40;4.65;;;;;;;;;;5064604;28;20032;-69
2021/07/04 04:33:59;;;;;;;17.80;5.50;;;;;;;;;;5064052;28;20028;-69
2021/07/04 04:36:25;;;;;;;6.88;4.38;;;;;;;;;;5064599;28;20060;-69
2021/07/04 04:38:51;;;;;;;5.88;4.65;;;;;;;;;;5064552;28;20023;-69
2021/07/04 04:41:19;;;;;;;10.88;4.82;;;;;;;;;;5064395;28;20605;-71
2021/07/04 04:43:45;;;;;;;10.75;5.18;;;;;;;;;;5062956;28;20024;-71
2021/07/04 04:46:12;;;;;;;5.75;4.45;;;;;;;;;;5064220;28;20387;-70
2021/07/04 04:48:38;;;;;;;7.18;4.10;;;;;;;;;;5064658;28;20032;-72
2021/07/04 04:51:06;;;;;;;9.30;4.50;;;;;;;;;;5064606;28;20025;-72
2021/07/04 04:53:32;;;;;;;6.75;4.32;;;;;;;;;;5062837;28;20522;-72
2021/07/04 04:55:58;;;;;;;8.65;4.32;;;;;;;;;;5057906;28;20053;-71
2021/07/04 04:58:25;;;;;;;6.03;4.05;;;;;;;;;;5064351;28;20021;-71
2021/07/04 05:00:51;;;;;;;5.15;3.92;;;;;;;;;;5064205;28;20115;-71
2021/07/04 05:03:18;;;;;;;11.20;4.00;;;;;;;;;;5062851;28;20021;-72
2021/07/04 05:05:44;;;;;;;6.47;4.22;;;;;;;;;;5064105;28;20500;-72
2021/07/04 05:08:10;;;;;;;4.95;3.72;;;;;;;;;;5063807;28;20106;-72
2021/07/04 05:10:36;;;;;;;5.07;4.38;;;;;;;;;;5064126;28;20056;-73
2021/07/04 05:13:02;;;;;;;7.25;5.57;;;;;;;;;;5062278;28;20033;-73
2021/07/04 05:15:29;;;;;;;6.20;4.93;;;;;;;;;;5064064;28;20016;-73
2021/07/04 05:17:55;;;;;;;9.18;5.07;;;;;;;;;;5064131;28;20036;-72
2021/07/04 05:20:21;;;;;;;5.18;4.63;;;;;;;;;;5063649;28;20021;-72
2021/07/04 05:22:47;;;;;;;5.38;4.45;;;;;;;;;;5063367;28;20036;-72
2021/07/04 05:25:14;;;;;;;6.32;5.07;;;;;;;;;;5063343;28;20051;-72
2021/07/04 05:27:40;;;;;;;4.40;4.00;;;;;;;;;;5063407;28;20037;-72
2021/07/04 05:30:07;;;;;;;5.63;4.70;;;;;;;;;;5055012;28;20013;-72
2021/07/04 05:32:33;;;;;;;4.95;4.05;;;;;;;;;;5063774;28;20036;-72
2021/07/04 05:34:59;;;;;;;7.03;4.18;;;;;;;;;;5063936;28;20024;-73
2021/07/04 05:37:25;;;;;;;4.82;3.72;;;;;;;;;;5063454;28;20033;-72
2021/07/04 05:39:52;;;;;;;4.28;3.88;;;;;;;;;;5061269;28;20029;-73
2021/07/04 05:42:18;;;;;;;4.63;4.10;;;;;;;;;;5063808;28;20024;-73
2021/07/04 05:44:44;;;;;;;9.90;4.80;;;;;;;;;;5061984;28;20028;-72
2021/07/04 05:47:10;;;;;;;7.07;4.40;;;;;;;;;;5063228;28;20111;-73
2021/07/04 05:49:37;;;;;;;4.78;4.28;;;;;;;;;;5063263;28;20032;-73
2021/07/04 05:52:05;;;;;;;5.32;4.55;;;;;;;;;;5061561;28;20021;-73
2021/07/04 05:54:31;;;;;;;5.63;4.35;;;;;;;;;;5062963;28;20067;-73
2021/07/04 05:56:57;;;;;;;4.40;4.00;;;;;;;;;;5063136;28;20039;-73
2021/07/04 05:59:24;;;;;;;5.45;4.50;;;;;;;;;;5062923;28;20610;-73
2021/07/04 06:01:50;;;;;;;5.50;4.88;;;;;;;;;;5061663;28;20033;-73
2021/07/04 06:04:16;;;;;;;6.72;5.50;;;;;;;;;;5054965;28;20020;-72
2021/07/04 06:06:42;;;;;;;8.05;5.22;;;;;;;;;;5062703;28;20031;-73
2021/07/04 06:09:08;;;;;;;5.70;5.10;;;;;;;;;;5062932;28;20020;-73
2021/07/04 06:11:34;;;;;;;9.75;5.80;;;;;;;;;;5062787;28;20574;-73
2021/07/04 06:14:01;;;;;;;9.93;5.88;;;;;;;;;;5061305;28;20029;-73
2021/07/04 06:16:27;;;;;;;6.55;5.35;;;;;;;;;;5062238;28;20036;-73
2021/07/04 06:18:53;;;;;;;7.32;5.05;;;;;;;;;;5063022;28;20123;-73
2021/07/04 06:21:19;;;;;;;6.75;5.40;;;;;;;;;;5062840;28;20494;-73
2021/07/04 06:23:45;;;;;;;5.53;5.00;;;;;;;;;;5061079;28;20077;-73
2021/07/04 06:26:12;;;;;;;5.68;5.07;;;;;;;;;;5062596;28;20163;-73
2021/07/04 06:28:38;;;;;;;5.68;5.05;;;;;;;;;;5062570;28;20037;-73
2021/07/04 06:31:04;;;;;;;5.70;5.20;;;;;;;;;;5062048;28;20039;-73
2021/07/04 06:33:30;;;;;;;9.63;5.90;;;;;;;;;;5062598;28;20113;-73
2021/07/04 06:35:56;;;;;;;5.50;4.72;;;;;;;;;;5060991;28;20044;-73
2021/07/04 06:38:22;;;;;;;6.63;5.55;;;;;;;;;;5061744;28;20043;-73
2021/07/04 06:40:49;;;;;;;6.70;5.68;;;;;;;;;;5061560;28;20036;-73
2021/07/04 06:43:15;;;;;;;7.72;5.65;;;;;;;;;;5061753;28;20493;-73
2021/07/04 06:45:41;;;;;;;5.45;4.95;;;;;;;;;;5061963;28;20078;-73
2021/07/04 06:48:07;;;;;;;10.10;5.70;;;;;;;;;;5061736;28;20111;-73
2021/07/04 06:50:33;;;;;;;11.23;5.95;;;;;;;;;;5060165;28;20704;-73
2021/07/04 06:53:00;;;;;;;7.25;6.15;;;;;;;;;;5061542;28;20114;-73
2021/07/04 06:55:26;;;;;;;6.35;5.63;;;;;;;;;;5060559;28;20388;-73
2021/07/04 06:57:52;;;;;;;10.27;6.00;;;;;;;;;;5062095;28;20130;-73
2021/07/04 07:00:18;;;;;;;6.43;5.70;;;;;;;;;;5060130;28;20029;-73
2021/07/04 07:02:45;;;;;;;5.95;5.32;;;;;;;;;;5061578;28;20081;-73
2021/07/04 07:05:12;;;;;;;7.95;5.53;;;;;;;;;;5060782;28;20062;-73
2021/07/04 07:07:39;;;;;;;6.97;5.82;;;;;;;;;;5061389;28;20016;-72
2021/07/04 07:10:06;;;;;;;8.52;5.60;;;;;;;;;;5061498;28;20056;-73
2021/07/04 07:12:32;;;;;;;7.25;5.72;;;;;;;;;;5060637;28;20554;-73
2021/07/04 07:14:58;;;;;;;6.57;5.65;;;;;;;;;;5060243;28;20441;-73
2021/07/04 07:17:25;;;;;;;6.93;5.53;;;;;;;;;;5060651;28;20028;-72
2021/07/04 07:19:51;;;;;;;9.27;6.40;;;;;;;;;;5061366;28;20032;-73
2021/07/04 07:22:18;;;;;;;6.80;5.57;;;;;;;;;;5060938;28;20111;-73
2021/07/04 07:24:45;;;;;;;5.45;4.93;;;;;;;;;;5061118;28;20068;-73
2021/07/04 07:27:11;;;;;;;7.03;5.90;;;;;;;;;;5059647;28;20039;-73
2021/07/04 07:29:37;;;;;;;7.88;5.97;;;;;;;;;;5060463;28;20027;-73
2021/07/04 07:32:03;;;;;;;7.57;6.40;;;;;;;;;;5061272;28;20043;-73
2021/07/04 07:34:30;;;;;;;8.32;6.65;;;;;;;;;;5060684;28;20020;-73
2021/07/04 07:36:56;;;;;;;11.75;6.80;;;;;;;;;;5061401;28;20033;-73
2021/07/04 07:39:23;;;;;;;7.30;6.07;;;;;;;;;;5061574;28;20350;-73
2021/07/04 07:41:49;;;;;;;6.60;5.80;;;;;;;;;;5059829;28;20028;-72
2021/07/04 07:44:15;;;;;;;8.05;6.88;;;;;;;;;;5061794;28;20024;-72
2021/07/04 07:46:42;;;;;;;7.68;6.10;;;;;;;;;;5060983;28;20020;-72
2021/07/04 07:49:08;;;;;;;7.00;6.30;;;;;;;;;;5061341;28;20697;-72
2021/07/04 07:51:35;;;;;;;11.25;6.70;;;;;;;;;;5060952;28;20055;-71
2021/07/04 07:54:01;;;;;;;7.63;6.07;;;;;;;;;;5060207;28;20019;-71
2021/07/04 07:56:27;;;;;;;7.28;6.40;;;;;;;;;;5059163;28;20056;-72
2021/07/04 07:58:54;;;;;;;9.48;6.63;;;;;;;;;;5060767;28;20020;-72
2021/07/04 08:01:20;;;;;;;7.65;6.68;;;;;;;;;;5060128;28;20052;-72
2021/07/04 08:03:46;;;;;;;8.15;7.10;;;;;;;;;;5061392;28;20028;-72
2021/07/04 08:06:12;;;;;;;7.32;6.47;;;;;;;;;;5060893;28;21218;-72
2021/07/04 08:08:38;;;;;;;6.70;6.00;;;;;;;;;;5051757;28;20033;-72
2021/07/04 08:11:05;;;;;;;8.05;6.82;;;;;;;;;;5058059;28;20020;-72
2021/07/04 08:13:31;;;;;;;6.85;5.65;;;;;;;;;;5060561;28;20625;-72
2021/07/04 08:15:58;;;;;;;7.45;5.72;;;;;;;;;;5057910;28;20033;-72
2021/07/04 08:18:24;;;;;;;7.80;5.43;;;;;;;;;;5059402;28;20391;-72
2021/07/04 08:20:51;;;;;;;8.70;5.53;;;;;;;;;;5060737;28;20476;-72
2021/07/04 08:23:18;;;;;;;8.02;4.93;;;;;;;;;;5051983;28;20189;-72
2021/07/04 08:25:44;;;;;;;5.93;5.30;;;;;;;;;;5059457;28;20028;-72
2021/07/04 08:28:11;;;;;;;5.82;4.80;;;;;;;;;;5058445;28;20032;-73
2021/07/04 08:30:37;;;;;;;7.57;5.28;;;;;;;;;;5059940;28;20417;-72
2021/07/04 08:33:03;;;;;;;5.93;4.45;;;;;;;;;;5060784;28;20055;-72
2021/07/04 08:35:30;;;;;;;7.60;4.35;;;;;;;;;;5060416;28;20029;-72
2021/07/04 08:37:56;;;;;;;5.03;4.50;;;;;;;;;;5058676;28;20292;-72
2021/07/04 08:40:22;;;;;;;7.32;4.65;;;;;;;;;;5060416;28;20020;-72
2021/07/04 08:42:48;;;;;;;5.57;4.38;;;;;;;;;;5059985;28;20038;-71
2021/07/04 08:45:14;;;;;;;7.78;4.43;;;;;;;;;;5058151;28;20074;-72
2021/07/04 08:47:41;;;;;;;6.13;4.50;;;;;;;;;;5060376;28;20031;-72
2021/07/04 08:50:08;;;;;;;7.70;4.30;;;;;;;;;;5060438;28;20051;-70
2021/07/04 08:52:36;;;;;;;5.57;4.28;;;;;;;;;;5058106;28;20439;-72
2021/07/04 08:55:04;;;;;;;4.20;3.80;;;;;;;;;;5059660;28;20646;-72
2021/07/04 08:57:30;;;;;;;4.55;4.15;;;;;;;;;;5059171;28;20036;-72
2021/07/04 08:59:56;;;;;;;9.32;3.90;;;;;;;;;;5060232;28;20735;-72
2021/07/04 09:02:30;;;;;;;4.68;4.10;;;;;;;;;;5059840;28;20056;-71
2021/07/04 09:05:04;;;;;;;5.07;3.88;;;;;;;;;;5061026;28;20090;-73
2021/07/04 09:07:31;;;;;;;4.18;3.53;;;;;;;;;;5053541;28;20842;-72
2021/07/04 09:09:58;;;;;;;6.10;3.85;;;;;;;;;;5063413;28;20078;-74
2021/07/04 09:12:44;;;;;;;4.60;4.07;;;;;;;;;;5063591;28;20021;-73
2021/07/04 09:15:17;;;;;;;6.65;3.83;;;;;;;;;;5063513;28;20099;-72
2021/07/04 09:17:46;;;;;;;5.20;3.38;;;;;;;;;;5063272;28;20040;-72
2021/07/04 09:20:14;;;;;;;4.63;3.67;;;;;;;;;;5062279;28;20436;-72
2021/07/04 09:22:42;;;;;;;4.68;3.92;;;;;;;;;;5063169;28;20040;-72
2021/07/04 09:25:13;;;;;;;4.68;3.65;;;;;;;;;;5063655;28;20024;-73
2021/07/04 09:27:41;;;;;;;6.40;3.83;;;;;;;;;;5063341;28;20039;-73
2021/07/04 09:30:11;;;;;;;5.10;3.95;;;;;;;;;;5063525;28;20074;-73
2021/07/04 09:32:37;;;;;;;3.60;3.28;;;;;;;;;;5062965;28;20051;-72
2021/07/04 09:35:05;;;;;;;4.20;3.20;;;;;;;;;;5061670;28;20029;-73
2021/07/04 09:37:32;;;;;;;5.38;3.85;;;;;;;;;;5063064;28;20047;-73
2021/07/04 09:40:17;;;;;;;5.20;3.63;;;;;;;;;;5063267;28;20161;-73
2021/07/04 09:42:52;;;;;;;3.45;3.15;;;;;;;;;;5062978;28;20485;-73
2021/07/04 09:45:19;;;;;;;4.80;3.47;;;;;;;;;;5062813;28;20036;-73
2021/07/04 09:47:50;;;;;;;8.30;3.70;;;;;;;;;;5063166;28;20111;-73
2021/07/04 12:15:36;;;;;;;4.90;3.13;;;;;;;;;;5058823;28;21081;-73
2021/07/04 12:18:02;;;;;;;3.58;2.72;;;;;;;;;;5055743;28;20056;-73
2021/07/04 12:20:31;;;;;;;4.68;2.90;;;;;;;;;;5058179;28;20025;-73
2021/07/04 12:22:59;;;;;;;3.80;2.70;;;;;;;;;;5058664;28;20021;-74
2021/07/04 12:25:31;;;;;;;3.03;2.55;;;;;;;;;;5058580;28;20016;-73
2021/07/04 12:28:01;;;;;;;6.20;3.00;;;;;;;;;;5058508;28;20024;-73
2021/07/04 12:30:34;;;;;;;4.55;2.97;;;;;;;;;;5056904;28;20218;-73
2021/07/04 12:33:16;;;;;;;3.40;3.10;;;;;;;;;;5058013;28;20022;-73
2021/07/04 12:35:49;;;;;;;5.15;2.95;;;;;;;;;;5058137;28;20056;-73
2021/07/04 12:38:18;;;;;;;8.00;3.55;;;;;;;;;;5058886;28;20028;-73
2021/07/04 12:40:49;;;;;;;7.53;3.40;;;;;;;;;;5057975;28;20040;-74
2021/07/04 12:43:16;;;;;;;4.90;3.10;;;;;;;;;;5056590;28;20024;-73
2021/07/04 12:45:46;;;;;;;4.22;3.63;;;;;;;;;;5058638;28;20021;-73
2021/07/04 12:48:13;;;;;;;3.88;3.45;;;;;;;;;;5058137;28;20657;-73
2021/07/04 12:50:40;;;;;;;4.22;3.25;;;;;;;;;;5057964;28;20548;-73
2021/07/04 12:53:07;;;;;;;4.63;2.80;;;;;;;;;;5056501;28;20033;-73
2021/07/04 12:55:47;;;;;;;3.53;2.55;;;;;;;;;;5058108;28;20025;-73
2021/07/04 12:58:19;;;;;;;7.03;2.88;;;;;;;;;;5056175;28;20431;-73
2021/07/04 13:00:46;;;;;;;8.23;3.40;;;;;;;;;;5055341;28;20017;-74
2021/07/04 13:03:12;;;;;;;5.70;3.40;;;;;;;;;;5055681;28;20025;-73
2021/07/04 13:05:39;;;;;;;7.47;3.10;;;;;;;;;;5058061;28;20092;-73
2021/07/04 13:08:12;;;;;;;6.07;3.75;;;;;;;;;;5057716;28;20021;-73
2021/07/04 13:10:39;;;;;;;5.78;4.05;;;;;;;;;;5057653;28;20028;-73
2021/07/04 13:13:09;;;;;;;10.27;4.53;;;;;;;;;;5056408;28;20029;-73
2021/07/04 13:15:35;;;;;;;5.15;4.07;;;;;;;;;;5057831;28;20048;-72
2021/07/04 13:18:02;;;;;;;5.22;3.20;;;;;;;;;;5057333;28;20021;-73
2021/07/04 13:20:28;;;;;;;4.75;3.03;;;;;;;;;;5057119;28;20025;-73
2021/07/04 13:22:55;;;;;;;6.93;3.38;;;;;;;;;;5055860;28;20021;-73
2021/07/04 13:25:24;;;;;;;5.90;3.47;;;;;;;;;;5052557;28;20679;-73
2021/07/04 13:28:00;;;;;;;6.13;3.28;;;;;;;;;;5043794;28;20025;-74
2021/07/04 13:30:26;;;;;;;3.55;2.97;;;;;;;;;;5041585;28;20029;-74
2021/07/04 13:32:58;;;;;;;3.90;3.40;;;;;;;;;;5044082;28;20029;-73
2021/07/04 13:35:29;;;;;;;3.90;3.45;;;;;;;;;;5044241;28;20047;-74
2021/07/04 13:37:55;;;;;;;;;;;;;;;;;;5044421;28;20017;-74
2021/07/04 13:40:22;;;;;;;3.78;3.38;;;;;;;;;;5044211;28;19905;-74
2021/07/04 13:42:52;;;;;;;5.13;3.60;;;;;;;;;;5042378;28;20051;-74
2021/07/04 13:45:35;;;;;;;6.65;3.70;;;;;;;;;;5042243;28;20119;-74
2021/07/04 13:48:07;;;;;;;3.85;3.20;;;;;;;;;;5043464;28;20013;-74
2021/07/04 13:50:33;;;;;;;;;;;;;;;;;;5044455;28;20091;-73
2021/07/04 13:52:59;;;;;;;3.92;3.58;;;;;;;;;;5043579;28;19912;-74
2021/07/04 13:55:25;;;;;;;5.78;3.40;;;;;;;;;;5042349;28;20036;-73
2021/07/04 13:57:51;;;;;;;6.03;4.05;;;;;;;;;;5043044;28;20024;-74
2021/07/04 14:00:18;;;;;;;5.32;4.28;;;;;;;;;;5040706;28;20166;-74
2021/07/04 14:02:44;;;;;;;4.72;3.80;;;;;;;;;;5043529;28;20100;-73
2021/07/04 14:05:12;;;;;;;4.32;3.78;;;;;;;;;;5042449;28;20546;-74
2021/07/04 14:07:38;;;;;;;5.13;3.85;;;;;;;;;;5043839;28;20057;-73
2021/07/04 14:10:05;;;;;;;4.88;3.17;;;;;;;;;;5043594;28;20029;-74
2021/07/04 14:12:31;;;;;;;4.57;3.92;;;;;;;;;;5043271;28;20029;-73
2021/07/04 14:14:57;;;;;;;4.78;3.70;;;;;;;;;;5043001;28;20378;-74
2021/07/04 14:17:26;;;;;;;3.25;2.95;;;;;;;;;;5042044;28;20040;-74
2021/07/04 14:19:53;;;;;;;3.60;3.30;;;;;;;;;;5043422;28;20056;-73
2021/07/04 14:22:19;;;;;;;4.15;3.75;;;;;;;;;;5043093;28;20021;-73
2021/07/04 14:24:46;;;;;;;5.28;3.80;;;;;;;;;;5042925;28;20550;-73
2021/07/04 14:27:12;;;;;;;3.42;3.05;;;;;;;;;;5042747;28;20025;-74
2021/07/04 14:29:38;;;;;;;5.30;3.60;;;;;;;;;;5041259;28;20108;-73
2021/07/04 14:32:05;;;;;;;8.63;3.63;;;;;;;;;;5037774;28;20061;-74
2021/07/04 14:34:32;;;;;;;5.40;3.70;;;;;;;;;;5039031;28;20120;-74
2021/07/04 14:36:58;;;;;;;7.88;3.80;;;;;;;;;;5040490;28;20021;-74
2021/07/04 14:39:24;;;;;;;6.30;3.80;;;;;;;;;;5031023;28;20020;-73
2021/07/04 14:41:50;;;;;;;6.97;3.92;;;;;;;;;;5041562;28;20476;-73
2021/07/04 14:44:17;;;;;;;7.53;3.95;;;;;;;;;;5043128;28;20035;-74
2021/07/04 14:46:43;;;;;;;8.27;3.83;;;;;;;;;;5043442;28;20036;-72
2021/07/04 14:49:09;;;;;;;5.85;3.90;;;;;;;;;;5042359;28;20027;-73
2021/07/04 14:51:42;;;;;;;4.72;3.97;;;;;;;;;;5032720;28;20116;-73
2021/07/04 14:54:08;;;;;;;4.57;3.65;;;;;;;;;;5031638;28;20036;-73
2021/07/04 14:56:36;;;;;;;6.38;3.90;;;;;;;;;;5024243;28;20029;-73
2021/07/04 14:59:03;;;;;;;5.60;3.70;;;;;;;;;;5027221;28;20061;-73
2021/07/04 15:01:29;;;;;;;5.05;3.40;;;;;;;;;;5030953;28;20032;-73
2021/07/04 15:03:56;;;;;;;4.22;3.33;;;;;;;;;;5025441;28;20116;-73
2021/07/04 15:06:22;;;;;;;5.20;3.85;;;;;;;;;;5028885;28;20160;-73
2021/07/04 15:08:48;;;;;;;8.15;3.90;;;;;;;;;;5027614;28;20112;-73
2021/07/04 15:11:17;;;;;;;6.78;3.85;;;;;;;;;;5028883;28;20032;-73
2021/07/04 15:13:43;;;;;;;4.22;3.40;;;;;;;;;;5025436;28;20032;-73
2021/07/04 15:16:09;;;;;;;5.68;3.40;;;;;;;;;;5025998;28;20033;-73
2021/07/04 15:18:35;;;;;;;4.97;3.45;;;;;;;;;;5022698;28;20108;-73
2021/07/04 15:21:02;;;;;;;4.82;3.60;;;;;;;;;;5015285;28;20509;-73
2021/07/04 15:23:28;;;;;;;5.22;3.70;;;;;;;;;;5021542;28;20020;-73
2021/07/04 15:26:00;;;;;;;4.47;3.70;;;;;;;;;;5026972;28;20499;-73
2021/07/04 15:28:27;;;;;;;4.22;3.45;;;;;;;;;;5024775;28;20124;-73
2021/07/04 15:30:53;;;;;;;3.58;3.13;;;;;;;;;;5027181;28;20112;-73
2021/07/04 15:33:19;;;;;;;6.10;3.47;;;;;;;;;;5019905;28;20519;-73
2021/07/04 15:35:45;;;;;;;4.38;3.90;;;;;;;;;;5025106;28;20037;-73
2021/07/04 15:38:11;;;;;;;5.05;3.65;;;;;;;;;;5023496;28;20032;-73
2021/07/04 15:40:38;;;;;;;4.45;4.05;;;;;;;;;;5021356;28;20021;-73
2021/07/04 15:43:04;;;;;;;5.22;4.05;;;;;;;;;;5022404;28;20028;-73
2021/07/04 15:45:30;;;;;;;5.28;3.60;;;;;;;;;;5025709;28;20033;-73
2021/07/04 15:47:57;;;;;;;5.80;3.90;;;;;;;;;;5027368;28;20108;-73
2021/07/04 15:50:23;;;;;;;5.88;4.00;;;;;;;;;;5022828;28;20456;-73
2021/07/04 15:52:49;;;;;;;3.85;3.45;;;;;;;;;;5023871;28;20385;-73
2021/07/04 15:55:16;;;;;;;6.93;3.67;;;;;;;;;;5023903;28;20018;-73
2021/07/04 15:57:42;;;;;;;4.55;3.83;;;;;;;;;;5025226;28;20104;-73
2021/07/04 16:00:10;;;;;;;4.15;3.10;;;;;;;;;;5021303;28;20516;-73
2021/07/04 16:02:37;;;;;;;4.15;3.42;;;;;;;;;;5026168;28;20033;-73
2021/07/04 16:05:03;;;;;;;4.15;3.75;;;;;;;;;;5022614;28;20094;-73
2021/07/04 16:07:30;;;;;;;4.10;3.70;;;;;;;;;;5031879;28;20029;-73
2021/07/04 16:09:56;;;;;;;4.15;3.75;;;;;;;;;;5033639;28;20061;-73
2021/07/04 16:12:22;;;;;;;5.90;4.05;;;;;;;;;;5036989;28;20021;-72
2021/07/04 16:14:48;;;;;;;5.32;4.18;;;;;;;;;;5027825;28;20059;-72
2021/07/04 16:17:14;;;;;;;5.50;4.22;;;;;;;;;;5024533;28;20108;-72
2021/07/04 16:19:41;;;;;;;4.28;3.60;;;;;;;;;;5021175;28;20030;-72
2021/07/04 16:22:07;;;;;;;6.88;4.30;;;;;;;;;;5026248;28;20053;-72
2021/07/04 16:24:34;;;;;;;6.35;3.90;;;;;;;;;;5023369;28;20630;-72
2021/07/04 16:27:00;;;;;;;5.40;4.80;;;;;;;;;;5026142;28;20026;-72
2021/07/04 16:29:27;;;;;;;4.70;4.15;;;;;;;;;;5021924;28;20029;-72
2021/07/04 16:31:53;;;;;;;6.97;4.75;;;;;;;;;;5025201;28;20033;-72
2021/07/04 16:34:20;;;;;;;4.80;4.13;;;;;;;;;;5027539;28;20120;-72
2021/07/04 16:36:47;;;;;;;4.35;3.92;;;;;;;;;;5024601;28;20033;-72
2021/07/04 16:39:13;;;;;;;5.15;4.20;;;;;;;;;;5024237;28;20041;-72
2021/07/04 16:41:41;;;;;;;5.25;3.75;;;;;;;;;;5016580;28;20091;-73
2021/07/04 16:44:08;;;;;;;9.20;4.45;;;;;;;;;;5016544;28;20037;-72
2021/07/04 16:46:35;;;;;;;4.95;4.40;;;;;;;;;;5021484;28;20033;-72
2021/07/04 16:49:01;;;;;;;8.00;4.90;;;;;;;;;;5022762;28;20028;-72
2021/07/04 16:51:28;;;;;;;8.15;4.45;;;;;;;;;;5022118;28;20095;-72
2021/07/04 16:53:54;;;;;;;7.82;4.38;;;;;;;;;;5021843;28;20017;-72
2021/07/04 16:56:20;;;;;;;7.68;4.30;;;;;;;;;;5022389;28;20151;-72
2021/07/04 16:58:47;;;;;;;6.22;4.07;;;;;;;;;;5021893;28;20013;-72
2021/07/04 17:01:14;;;;;;;4.93;4.18;;;;;;;;;;5021536;28;20095;-73
2021/07/04 17:03:40;;;;;;;11.13;5.85;;;;;;;;;;5025197;28;20056;-75
2021/07/04 17:06:07;;;;;;;8.35;4.63;;;;;;;;;;5023030;28;20550;-75
2021/07/04 17:08:33;;;;;;;5.90;4.68;;;;;;;;;;5027460;28;20025;-75